»·PEaware :: N137AD KSBA-KBUR

N137AD :: KSBA-KBUR

FLIGHT INFORMATION

Flight Status: Arrived
Operator: Privately registered:
United States
More flights under this callsign
Pilot: Mike Z. (25595)
Aircraft: CESSNA 172 SKYHAWK
(C172)
More flights by this aircraft type
Origin: KSBA Santa Barbara Mun
United States
Destination: KBUR Bob Hope-Burbank
United States
More flights between these airports :: More routes between these airports
Route: KSBA VNY KBUR
File this flight plan on PilotEdge
Remarks: CAT-08
Altitude:
(Current/Filed)
9,500ft
Speed:
(Current/Filed)
110kts
Departed: 04-Aug-19 11:20 AM
Arrived: 04-Aug-19 12:12 PM
Distance/Time
Traveled:
75nm/0:51
Distance/Time
To Go:
Arrived

Flight Plot

Page will automatically refresh every two minutes.


Map Options




Map Legend


Flown Route
Filed Route
Departure Airport
Arrival Airport
Navaid (VOR, NDB)
Fix

Horizontal Profiles

Position Reports

Time Latitude Longitude Heading Altitude Ground
Speed
04-Aug-19 11:07 34.432569 -119.835085 71 14ft 0kts
04-Aug-19 11:08 34.432569 -119.835085 71 14ft 0kts
04-Aug-19 11:09 34.432569 -119.835085 71 14ft 0kts
04-Aug-19 11:10 34.432569 -119.835085 71 14ft 0kts
04-Aug-19 11:11 34.432569 -119.835085 71 14ft 0kts
04-Aug-19 11:12 34.432569 -119.835085 71 14ft 0kts
04-Aug-19 11:13 34.432585 -119.835168 232 14ft 8kts
04-Aug-19 11:14 34.428826 -119.835162 169 11ft 9kts
04-Aug-19 11:15 34.428785 -119.835153 169 11ft 0kts
04-Aug-19 11:16 34.428784 -119.835153 168 11ft 0kts
04-Aug-19 11:17 34.428785 -119.835153 169 11ft 0kts
04-Aug-19 11:18 34.427912 -119.835209 266 10ft 11kts
04-Aug-19 11:19 34.427652 -119.862843 269 230ft 97kts
04-Aug-19 11:20 34.426446 -119.895586 266 285ft 103kts
04-Aug-19 11:21 34.421295 -119.930794 242 125ft 102kts
04-Aug-19 11:23 34.409703 -119.919729 87 119ft 98kts
04-Aug-19 11:24 34.413587 -119.887992 69 136ft 93kts
04-Aug-19 11:25 34.414012 -119.858304 99 235ft 91kts
04-Aug-19 11:26 34.417521 -119.826571 80 201ft 98kts
04-Aug-19 11:27 34.430885 -119.798840 40 231ft 95kts
04-Aug-19 11:28 34.451401 -119.782442 26 888ft 79kts
04-Aug-19 11:29 34.470525 -119.771734 17 2019ft 76kts
04-Aug-19 11:30 34.479976 -119.751783 86 3073ft 77kts
04-Aug-19 11:31 34.480528 -119.727162 66 4039ft 78kts
04-Aug-19 11:32 34.485951 -119.702806 66 5021ft 71kts
04-Aug-19 11:33 34.494915 -119.681057 63 5864ft 73kts
04-Aug-19 11:34 34.503592 -119.658731 89 6661ft 73kts
04-Aug-19 11:35 34.500490 -119.635054 104 7452ft 69kts
04-Aug-19 11:36 34.495579 -119.611820 109 8123ft 77kts
04-Aug-19 11:37 34.488521 -119.585487 109 8761ft 83kts
04-Aug-19 11:38 34.483053 -119.562034 109 9496ft 73kts
04-Aug-19 11:39 34.475890 -119.531425 105 9504ft 108kts
04-Aug-19 11:40 34.467534 -119.493681 110 9504ft 125kts
04-Aug-19 11:41 34.459578 -119.451776 115 9510ft 127kts
04-Aug-19 11:41 34.451058 -119.418689 107 9511ft 120kts
04-Aug-19 11:43 34.444122 -119.373997 106 9872ft 106kts
04-Aug-19 11:44 34.437862 -119.344963 117 10622ft 79kts
04-Aug-19 11:44 34.432554 -119.324423 118 10980ft 88kts
04-Aug-19 11:45 34.425082 -119.295842 115 11527ft 84kts
04-Aug-19 11:47 34.416006 -119.256579 113 11505ft 111kts
04-Aug-19 11:47 34.408124 -119.226644 116 11504ft 112kts
04-Aug-19 11:48 34.398511 -119.190820 115 11502ft 111kts
04-Aug-19 11:50 34.387874 -119.148561 114 11500ft 112kts
04-Aug-19 11:50 34.380663 -119.118103 113 11500ft 113kts
04-Aug-19 11:51 34.372253 -119.080499 112 11498ft 115kts
04-Aug-19 11:52 34.361993 -119.043736 116 11496ft 114kts
04-Aug-19 11:53 34.351985 -119.006927 114 11496ft 115kts
04-Aug-19 11:54 34.343174 -118.972566 113 11496ft 116kts
04-Aug-19 11:55 34.334343 -118.934622 111 11496ft 117kts
04-Aug-19 11:56 34.326301 -118.896465 112 11493ft 119kts
04-Aug-19 11:57 34.316313 -118.858097 113 10986ft 118kts
04-Aug-19 11:58 34.306267 -118.819329 112 10094ft 119kts
04-Aug-19 11:59 34.296718 -118.782187 112 9084ft 114kts
04-Aug-19 12:00 34.287330 -118.745634 111 8080ft 114kts
04-Aug-19 12:01 34.278473 -118.710932 110 7450ft 116kts
04-Aug-19 12:02 34.267972 -118.670062 109 6862ft 132kts
04-Aug-19 12:03 34.256887 -118.626810 108 6263ft 135kts
04-Aug-19 12:04 34.245975 -118.584329 107 5579ft 128kts
04-Aug-19 12:05 34.234217 -118.544536 117 4676ft 124kts
04-Aug-19 12:06 34.215139 -118.510377 124 3777ft 120kts
04-Aug-19 12:07 34.198153 -118.477355 93 2994ft 104kts
04-Aug-19 12:08 34.198626 -118.443103 90 2103ft 98kts
04-Aug-19 12:09 34.198419 -118.408330 89 1468ft 120kts
04-Aug-19 12:10 34.198120 -118.378749 89 1020ft 71kts
04-Aug-19 12:11 34.197806 -118.361113 89 717ft 22kts
04-Aug-19 12:12 34.198634 -118.360249 0 717ft 0kts
04-Aug-19 12:13 34.198856 -118.360213 28 718ft 0kts
04-Aug-19 12:14 34.198868 -118.358493 88 715ft 11kts
04-Aug-19 12:15 34.201524 -118.358632 339 726ft 8kts
04-Aug-19 12:16 34.200894 -118.359738 236 725ft 4kts
04-Aug-19 12:17 34.200839 -118.359674 77 725ft 0kts
04-Aug-19 12:18 34.200839 -118.359674 77 725ft 0kts
04-Aug-19 12:19 34.200839 -118.359674 77 725ft 0kts

Navigation Log

Ident Type
Flight plan parsing failed, navigation log unavailable